createdAt,value
2023-03-11T00:01:07.386Z,73.95
2023-03-11T00:06:14.059Z,73.41
2023-03-11T00:08:40.402Z,73.67
2023-03-11T00:11:06.745Z,74.55
2023-03-11T00:13:35.969Z,74.97
2023-03-11T00:16:11.721Z,74.74
2023-03-11T00:18:38.140Z,75.28
2023-03-11T00:21:04.549Z,73.87
2023-03-11T00:23:30.994Z,73.60
2023-03-11T00:26:06.421Z,74.68
2023-03-11T00:31:23.458Z,75.26
2023-03-11T00:33:49.853Z,75.36
2023-03-11T00:36:16.337Z,75.45
2023-03-11T00:38:42.763Z,74.61
2023-03-11T00:41:09.206Z,74.81
2023-03-11T00:43:35.582Z,75.05
2023-03-11T00:46:02.017Z,75.34
2023-03-11T00:48:28.398Z,75.28
2023-03-11T00:50:54.735Z,75.46
2023-03-11T00:53:21.114Z,75.25
2023-03-11T00:55:47.486Z,75.17
2023-03-11T00:58:13.964Z,75.55
2023-03-11T01:00:40.339Z,75.17
2023-03-11T01:03:06.663Z,74.98
2023-03-11T01:08:32.220Z,75.10
2023-03-11T01:10:58.663Z,74.64
2023-03-11T01:13:25.096Z,75.28
2023-03-11T01:15:51.585Z,75.38
2023-03-11T01:18:18.093Z,75.30
2023-03-11T01:20:44.547Z,75.41
2023-03-11T01:23:10.970Z,75.08
2023-03-11T01:25:37.370Z,75.27
2023-03-11T01:28:03.813Z,75.07
2023-03-11T01:30:30.249Z,75.42
2023-03-11T01:32:56.590Z,75.10
2023-03-11T01:35:25.708Z,74.52
2023-03-11T01:37:52.074Z,72.53
2023-03-11T01:40:18.395Z,72.61
2023-03-11T01:42:44.718Z,71.19
2023-03-11T01:45:11.062Z,71.05
2023-03-11T01:47:37.505Z,68.66
2023-03-11T01:50:03.828Z,70.77
2023-03-11T01:55:15.144Z,72.46
2023-03-11T01:57:41.606Z,73.01
2023-03-11T02:00:08.043Z,73.13
2023-03-11T02:02:34.544Z,71.27
2023-03-11T02:05:01.048Z,72.52
2023-03-11T02:07:27.489Z,73.19
2023-03-11T02:09:54.021Z,73.50
2023-03-11T02:12:20.446Z,73.38
2023-03-11T02:14:46.849Z,73.61
2023-03-11T02:17:13.264Z,73.59
2023-03-11T02:19:39.694Z,73.55
2023-03-11T02:22:06.143Z,73.45
2023-03-11T02:24:32.618Z,73.33
2023-03-11T02:26:59.532Z,73.20
2023-03-11T02:29:25.954Z,73.40
2023-03-11T02:31:52.456Z,73.80
2023-03-11T02:34:18.961Z,73.86
2023-03-11T02:36:45.430Z,73.72
2023-03-11T02:39:11.839Z,74.14
2023-03-11T02:41:38.304Z,73.48
2023-03-11T02:44:04.765Z,73.64
2023-03-11T02:46:31.193Z,73.61
2023-03-11T02:48:57.571Z,73.47
2023-03-11T02:51:23.957Z,74.34
2023-03-11T02:53:50.349Z,74.07
2023-03-11T02:56:16.692Z,73.90
2023-03-11T02:58:43.097Z,73.76
2023-03-11T03:01:09.585Z,72.56
2023-03-11T03:03:36.026Z,71.88
2023-03-11T03:06:03.515Z,71.55
2023-03-11T03:08:30.014Z,71.00
2023-03-11T03:10:56.448Z,69.92
2023-03-11T03:13:22.859Z,69.91
2023-03-11T03:15:50.983Z,69.27
2023-03-11T03:18:17.551Z,69.52
2023-03-11T03:20:43.979Z,68.91
2023-03-11T03:23:11.859Z,69.74
2023-03-11T03:25:50.234Z,70.48
2023-03-11T03:28:16.634Z,69.77
2023-03-11T03:30:43.281Z,69.45
2023-03-11T03:33:09.655Z,69.14
2023-03-11T03:35:36.013Z,69.85
2023-03-11T03:38:02.584Z,70.00
2023-03-11T03:40:29.266Z,69.74
2023-03-11T03:45:47.077Z,69.32
2023-03-11T03:48:13.731Z,69.62
2023-03-11T03:50:40.558Z,68.95
2023-03-11T03:53:06.935Z,68.33
2023-03-11T03:55:33.348Z,69.36
2023-03-11T03:57:59.817Z,69.51
2023-03-11T04:00:26.240Z,70.42
2023-03-11T04:02:52.577Z,70.06
2023-03-11T04:05:18.941Z,68.82
2023-03-11T04:07:45.339Z,69.13
2023-03-11T04:10:11.700Z,69.61
2023-03-11T04:12:38.124Z,70.28
2023-03-11T04:15:04.456Z,69.91
2023-03-11T04:17:30.840Z,70.31
2023-03-11T04:19:57.226Z,69.76
2023-03-11T04:22:23.621Z,70.10
2023-03-11T04:24:58.238Z,69.91
2023-03-11T04:27:27.967Z,70.65
2023-03-11T04:29:54.374Z,70.33
2023-03-11T04:32:20.790Z,70.49
2023-03-11T04:34:47.488Z,70.57
2023-03-11T04:37:13.888Z,70.23
2023-03-11T04:39:45.419Z,69.91
2023-03-11T04:42:13.543Z,69.52
2023-03-11T04:44:40.030Z,69.32
2023-03-11T04:47:06.464Z,69.96
2023-03-11T04:49:32.874Z,70.34
2023-03-11T04:51:59.259Z,70.31
2023-03-11T04:54:25.626Z,70.14
2023-03-11T04:56:52.085Z,69.85
2023-03-11T04:59:18.463Z,69.87
2023-03-11T05:01:44.875Z,69.83
2023-03-11T05:04:11.456Z,70.41
2023-03-11T05:06:37.954Z,70.70
2023-03-11T05:09:04.447Z,70.15
2023-03-11T05:11:30.872Z,69.30
2023-03-11T05:13:57.387Z,68.73
2023-03-11T05:16:39.071Z,68.81
2023-03-11T05:19:05.447Z,68.21
2023-03-11T05:21:31.841Z,68.37
2023-03-11T05:23:58.265Z,68.36
2023-03-11T05:26:24.646Z,68.87
2023-03-11T05:28:51.078Z,68.77
2023-03-11T05:31:17.543Z,69.01
2023-03-11T05:33:44.001Z,69.33
2023-03-11T05:36:10.480Z,68.86
2023-03-11T05:38:36.961Z,69.08
2023-03-11T05:41:03.352Z,67.42
2023-03-11T05:43:29.733Z,68.34
2023-03-11T05:45:56.062Z,68.34
2023-03-11T05:48:22.472Z,68.00
2023-03-11T05:50:48.804Z,68.90
2023-03-11T05:53:15.130Z,68.19
2023-03-11T05:55:41.443Z,69.37
2023-03-11T05:58:07.842Z,68.92
2023-03-11T06:00:34.257Z,68.53
2023-03-11T06:03:00.747Z,68.20
2023-03-11T06:05:27.255Z,68.07
2023-03-11T06:07:53.708Z,69.24
2023-03-11T06:10:20.181Z,69.18
2023-03-11T06:12:46.609Z,69.03
2023-03-11T06:15:13.036Z,69.18
2023-03-11T06:17:46.640Z,69.75
2023-03-11T06:20:13.129Z,69.72
2023-03-11T06:22:40.370Z,70.38
2023-03-11T06:25:06.904Z,70.94
2023-03-11T06:27:33.338Z,70.45
2023-03-11T06:29:59.780Z,70.50
2023-03-11T06:32:26.293Z,71.15
2023-03-11T06:34:52.701Z,71.44
2023-03-11T06:37:19.908Z,71.06
2023-03-11T06:39:49.489Z,71.27
2023-03-11T06:42:15.927Z,70.71
2023-03-11T06:44:42.267Z,71.46
2023-03-11T06:47:08.599Z,70.87
2023-03-11T06:49:34.959Z,69.91
2023-03-11T06:52:01.333Z,71.40
2023-03-11T06:54:27.671Z,71.01
2023-03-11T06:56:53.999Z,70.92
2023-03-11T06:59:20.348Z,70.43
2023-03-11T07:01:46.772Z,70.34
2023-03-11T07:04:13.116Z,70.36
2023-03-11T07:06:39.444Z,70.31
2023-03-11T07:09:05.897Z,70.10
2023-03-11T07:11:32.291Z,70.23
2023-03-11T07:13:58.630Z,70.38
2023-03-11T07:16:25.007Z,70.83
2023-03-11T07:18:51.406Z,70.49
2023-03-11T07:21:17.778Z,70.93
2023-03-11T07:23:44.142Z,70.77
2023-03-11T07:26:11.536Z,70.48
2023-03-11T07:28:37.949Z,70.65
2023-03-11T07:31:04.357Z,70.80
2023-03-11T07:33:32.624Z,70.46
2023-03-11T07:36:00.202Z,69.53
2023-03-11T07:38:26.560Z,70.01
2023-03-11T07:40:52.907Z,69.71
2023-03-11T07:43:32.210Z,69.55
2023-03-11T07:45:58.776Z,69.88
2023-03-11T07:48:25.188Z,70.49
2023-03-11T07:50:51.625Z,70.06
2023-03-11T07:53:18.328Z,70.00
2023-03-11T07:55:50.537Z,70.03
2023-03-11T07:58:16.958Z,69.96
2023-03-11T08:00:43.306Z,69.21
2023-03-11T08:03:09.725Z,70.00
2023-03-11T08:05:36.107Z,69.94
2023-03-11T08:08:02.543Z,71.01
2023-03-11T08:10:35.572Z,70.99
2023-03-11T08:15:53.519Z,71.56
2023-03-11T08:18:20.062Z,71.91
2023-03-11T08:20:46.450Z,71.51
2023-03-11T08:23:12.787Z,70.75
2023-03-11T08:25:39.178Z,71.45
2023-03-11T08:28:14.363Z,70.89
2023-03-11T08:30:42.035Z,71.16
2023-03-11T08:33:08.629Z,70.97
2023-03-11T08:35:35.148Z,71.22
2023-03-11T08:38:01.767Z,71.32
2023-03-11T08:40:28.289Z,71.46
2023-03-11T08:42:54.728Z,71.87
2023-03-11T08:45:21.188Z,71.23
2023-03-11T08:47:47.591Z,72.04
2023-03-11T08:52:55.796Z,72.17
2023-03-11T08:55:22.213Z,72.14
2023-03-11T08:57:48.697Z,71.91
2023-03-11T09:00:15.109Z,72.51
2023-03-11T09:02:41.750Z,72.37
2023-03-11T09:05:08.295Z,72.15
2023-03-11T09:07:34.745Z,72.15
2023-03-11T09:10:01.185Z,71.99
2023-03-11T09:12:27.554Z,71.87
2023-03-11T09:14:53.966Z,71.64
2023-03-11T09:17:20.393Z,71.61
2023-03-11T09:19:46.845Z,71.22
2023-03-11T09:22:15.379Z,71.00
2023-03-11T09:24:41.799Z,71.03
2023-03-11T09:27:08.188Z,71.66
2023-03-11T09:29:34.568Z,71.59
2023-03-11T09:32:00.917Z,70.88
2023-03-11T09:34:27.486Z,70.84
2023-03-11T09:36:53.951Z,70.59
2023-03-11T09:39:20.299Z,70.21
2023-03-11T09:41:57.825Z,70.38
2023-03-11T09:44:35.383Z,70.52
2023-03-11T09:49:47.644Z,71.33
2023-03-11T09:52:14.096Z,71.53
2023-03-11T09:54:40.480Z,71.10
2023-03-11T09:57:06.890Z,70.92
2023-03-11T09:59:33.248Z,71.86
2023-03-11T10:01:59.640Z,71.83
2023-03-11T10:04:26.048Z,71.43
2023-03-11T10:06:52.462Z,72.33
2023-03-11T10:09:18.854Z,72.21
2023-03-11T10:11:45.308Z,72.05
2023-03-11T10:14:11.737Z,72.19
2023-03-11T10:16:38.172Z,72.31
2023-03-11T10:19:04.597Z,72.17
2023-03-11T10:21:30.950Z,72.58
2023-03-11T10:23:57.465Z,71.97
2023-03-11T10:26:23.902Z,72.29
2023-03-11T10:28:50.285Z,71.98
2023-03-11T10:31:16.658Z,72.49
2023-03-11T10:33:43.195Z,72.75
2023-03-11T10:36:09.643Z,72.24
2023-03-11T10:38:36.068Z,72.44
2023-03-11T10:41:02.446Z,72.43
2023-03-11T10:43:28.933Z,72.13
2023-03-11T10:45:55.432Z,71.83
2023-03-11T10:48:21.880Z,71.58
2023-03-11T10:50:48.370Z,72.59
2023-03-11T10:53:16.090Z,72.81
2023-03-11T10:55:42.491Z,72.29
2023-03-11T10:58:08.963Z,72.90
2023-03-11T11:00:35.421Z,72.80
2023-03-11T11:03:01.821Z,73.71
2023-03-11T11:05:28.170Z,73.64
2023-03-11T11:07:54.555Z,74.35
2023-03-11T11:10:21.031Z,74.79
2023-03-11T11:12:47.766Z,74.21
2023-03-11T11:15:15.559Z,73.95
2023-03-11T11:17:41.965Z,73.65
2023-03-11T11:20:08.379Z,73.33
2023-03-11T11:22:34.849Z,74.34
2023-03-11T11:25:02.288Z,74.67
2023-03-11T11:27:28.921Z,75.23
2023-03-11T11:29:55.277Z,75.33
2023-03-11T11:32:21.722Z,74.74
2023-03-11T11:34:50.669Z,74.68
2023-03-11T11:37:17.066Z,74.48
2023-03-11T11:39:43.563Z,74.89
2023-03-11T11:42:09.990Z,74.41
2023-03-11T11:44:36.877Z,73.65
2023-03-11T11:47:07.991Z,74.16
2023-03-11T11:49:34.448Z,74.84
2023-03-11T11:52:12.472Z,74.01
2023-03-11T11:54:39.266Z,75.03
2023-03-11T11:57:05.662Z,74.66
2023-03-11T12:02:13.373Z,73.61
2023-03-11T12:04:40.196Z,73.51
2023-03-11T12:07:06.596Z,72.96
2023-03-11T12:09:33.094Z,72.23
2023-03-11T12:11:59.572Z,72.68
2023-03-11T12:14:26.011Z,72.76
2023-03-11T12:16:52.370Z,72.47
2023-03-11T12:19:19.004Z,73.59
2023-03-11T12:21:46.633Z,73.51
2023-03-11T12:24:13.019Z,73.54
2023-03-11T12:26:39.406Z,74.09
2023-03-11T12:29:05.740Z,73.44
2023-03-11T12:31:32.242Z,73.65
2023-03-11T12:33:58.714Z,73.27
2023-03-11T12:36:25.198Z,73.10
2023-03-11T12:38:51.663Z,73.09
2023-03-11T12:41:19.856Z,73.52
2023-03-11T12:43:47.574Z,72.68
2023-03-11T12:46:19.567Z,72.92
2023-03-11T12:48:46.112Z,72.95
2023-03-11T12:51:12.587Z,73.05
2023-03-11T12:53:39.201Z,72.93
2023-03-11T12:56:05.787Z,73.36
2023-03-11T12:58:32.340Z,72.89
2023-03-11T13:00:58.788Z,72.96
2023-03-11T13:03:25.272Z,72.72
2023-03-11T13:05:51.723Z,72.81
2023-03-11T13:08:18.203Z,72.76
2023-03-11T13:10:53.841Z,71.76
2023-03-11T13:13:20.253Z,71.76
2023-03-11T13:15:53.149Z,72.80
2023-03-11T13:18:19.755Z,72.90
2023-03-11T13:20:46.281Z,73.86
2023-03-11T13:23:12.825Z,74.23
2023-03-11T13:25:39.331Z,73.43
2023-03-11T13:28:05.742Z,73.26
2023-03-11T13:30:32.224Z,73.54
2023-03-11T13:32:58.705Z,72.84
2023-03-11T13:35:25.212Z,73.32
2023-03-11T13:37:51.572Z,73.97
2023-03-11T13:40:17.978Z,74.54
2023-03-11T13:42:44.481Z,74.62
2023-03-11T13:45:11.005Z,74.17
2023-03-11T13:47:45.834Z,74.44
2023-03-11T13:50:17.022Z,73.65
2023-03-11T13:52:44.268Z,72.90
2023-03-11T13:55:10.652Z,73.42
2023-03-11T13:57:37.116Z,73.64
2023-03-11T14:00:03.550Z,73.52
2023-03-11T14:02:29.987Z,74.22
2023-03-11T14:04:56.319Z,74.08
2023-03-11T14:10:13.129Z,74.39
2023-03-11T14:12:39.511Z,75.35
2023-03-11T14:15:05.957Z,75.53
2023-03-11T14:17:32.297Z,74.97
2023-03-11T14:19:58.671Z,74.77
2023-03-11T14:22:26.773Z,75.48
2023-03-11T14:24:53.090Z,76.35
2023-03-11T14:27:19.477Z,76.41
2023-03-11T14:29:55.263Z,76.71
2023-03-11T14:32:21.790Z,77.00
2023-03-11T14:34:48.161Z,76.49
2023-03-11T14:37:14.527Z,76.87
2023-03-11T14:39:40.875Z,77.76
2023-03-11T14:42:07.324Z,77.23
2023-03-11T14:44:33.960Z,76.57
2023-03-11T14:47:01.211Z,76.47
2023-03-11T14:49:28.312Z,76.44
2023-03-11T14:51:54.784Z,76.31
2023-03-11T14:54:21.299Z,76.00
2023-03-11T14:56:50.924Z,75.73
2023-03-11T14:59:17.952Z,75.88
2023-03-11T15:01:44.385Z,75.42
2023-03-11T15:04:10.793Z,76.15
2023-03-11T15:06:37.266Z,75.92
2023-03-11T15:09:03.665Z,76.22
2023-03-11T15:11:30.054Z,75.89
2023-03-11T15:13:56.468Z,75.82
2023-03-11T15:16:22.996Z,76.02
2023-03-11T15:18:49.422Z,76.03
2023-03-11T15:21:15.814Z,76.28
2023-03-11T15:23:42.246Z,75.69
2023-03-11T15:26:08.771Z,75.66
2023-03-11T15:31:18.269Z,76.31
2023-03-11T15:33:50.093Z,76.10
2023-03-11T15:36:16.606Z,76.20
2023-03-11T15:38:43.069Z,76.37
2023-03-11T15:41:10.019Z,76.34
2023-03-11T15:43:36.769Z,75.78
2023-03-11T15:46:03.866Z,75.82
2023-03-11T15:48:30.309Z,75.56
2023-03-11T15:50:56.711Z,75.87
2023-03-11T15:53:23.077Z,75.28
2023-03-11T15:55:49.532Z,75.13
2023-03-11T15:58:15.928Z,75.29
2023-03-11T16:00:42.293Z,75.08
2023-03-11T16:03:08.770Z,75.05
2023-03-11T16:05:35.201Z,74.42
2023-03-11T16:08:01.669Z,74.52
2023-03-11T16:10:28.026Z,74.58
2023-03-11T16:12:54.369Z,74.68
2023-03-11T16:15:20.797Z,74.76
2023-03-11T16:17:50.043Z,74.31
2023-03-11T16:20:16.598Z,74.32
2023-03-11T16:22:42.976Z,74.72
2023-03-11T16:25:12.416Z,74.41
2023-03-11T16:27:38.776Z,74.32
2023-03-11T16:30:05.249Z,74.15
2023-03-11T16:32:31.813Z,73.95
2023-03-11T16:34:58.345Z,74.35
2023-03-11T16:37:24.777Z,74.31
2023-03-11T16:39:51.217Z,74.48
2023-03-11T16:42:17.582Z,74.63
2023-03-11T16:44:43.897Z,74.49
2023-03-11T16:47:10.802Z,74.95
2023-03-11T16:49:40.450Z,74.92
2023-03-11T16:52:08.004Z,75.24
2023-03-11T16:54:34.425Z,74.81
2023-03-11T16:57:08.130Z,75.29
2023-03-11T16:59:34.521Z,74.73
2023-03-11T17:04:46.147Z,75.02
2023-03-11T17:07:12.578Z,75.15
2023-03-11T17:09:38.998Z,75.88
2023-03-11T17:12:05.414Z,75.35
2023-03-11T17:14:32.113Z,75.19
2023-03-11T17:16:58.582Z,74.84
2023-03-11T17:19:25.086Z,74.73
2023-03-11T17:21:51.496Z,74.73
2023-03-11T17:24:17.965Z,74.48
2023-03-11T17:26:44.415Z,74.76
2023-03-11T17:29:10.926Z,74.37
2023-03-11T17:31:37.551Z,74.61
2023-03-11T17:34:04.056Z,74.06
2023-03-11T17:36:42.112Z,73.82
2023-03-11T17:39:11.261Z,74.70
2023-03-11T17:41:37.754Z,73.94
2023-03-11T17:44:04.201Z,74.04
2023-03-11T17:46:30.716Z,74.68
2023-03-11T17:48:57.248Z,74.89
2023-03-11T17:51:23.682Z,75.01
2023-03-11T17:53:50.170Z,75.82
2023-03-11T17:56:16.580Z,76.00
2023-03-11T17:58:43.074Z,75.68
2023-03-11T18:01:09.559Z,75.03
2023-03-11T18:03:36.273Z,74.81
2023-03-11T18:06:03.719Z,74.64
2023-03-11T18:08:30.241Z,74.72
2023-03-11T18:10:56.827Z,74.81
2023-03-11T18:13:23.266Z,74.63
2023-03-11T18:15:49.661Z,74.57
2023-03-11T18:18:16.123Z,75.00
2023-03-11T18:20:55.628Z,74.68
2023-03-11T18:23:22.046Z,75.05
2023-03-11T18:25:48.531Z,74.57
2023-03-11T18:28:15.211Z,74.66
2023-03-11T18:30:41.636Z,74.86
2023-03-11T18:33:11.792Z,74.48
2023-03-11T18:35:38.233Z,74.83
2023-03-11T18:38:04.709Z,74.01
2023-03-11T18:40:31.142Z,74.09
2023-03-11T18:42:57.622Z,74.65
2023-03-11T18:45:24.009Z,74.63
2023-03-11T18:47:50.462Z,74.58
2023-03-11T18:50:17.053Z,74.22
2023-03-11T18:52:43.509Z,74.24
2023-03-11T18:55:09.974Z,74.33
2023-03-11T18:57:36.445Z,74.18
2023-03-11T19:00:02.857Z,74.08
2023-03-11T19:02:29.620Z,74.22
2023-03-11T19:04:56.094Z,74.25
2023-03-11T19:07:23.579Z,74.41
2023-03-11T19:09:50.062Z,74.17
2023-03-11T19:12:16.480Z,74.92
2023-03-11T19:14:43.036Z,74.73
2023-03-11T19:17:10.867Z,74.18
2023-03-11T19:19:37.389Z,74.85
2023-03-11T19:22:03.859Z,75.25
2023-03-11T19:24:30.370Z,75.00
2023-03-11T19:26:56.889Z,74.02
2023-03-11T19:29:23.408Z,74.79
2023-03-11T19:31:49.874Z,74.57
2023-03-11T19:34:16.369Z,74.52
2023-03-11T19:36:42.850Z,74.06
2023-03-11T19:39:09.330Z,74.87
2023-03-11T19:41:35.770Z,75.17
2023-03-11T19:44:02.309Z,75.70
2023-03-11T19:46:28.835Z,75.20
2023-03-11T19:48:55.379Z,74.95
2023-03-11T19:51:21.890Z,74.58
2023-03-11T19:53:48.450Z,74.49
2023-03-11T19:56:14.869Z,74.79
2023-03-11T19:58:42.477Z,75.28
2023-03-11T20:01:09.049Z,75.07
2023-03-11T20:03:35.572Z,74.93
2023-03-11T20:06:02.232Z,75.15
2023-03-11T20:08:28.886Z,75.15
2023-03-11T20:10:55.515Z,75.34
2023-03-11T20:13:22.047Z,74.82
2023-03-11T20:15:48.583Z,75.04
2023-03-11T20:18:15.164Z,74.53
2023-03-11T20:20:41.719Z,75.05
2023-03-11T20:23:08.160Z,74.68
2023-03-11T20:25:34.725Z,75.11
2023-03-11T20:28:01.154Z,76.24
2023-03-11T20:30:27.495Z,75.74
2023-03-11T20:32:53.982Z,75.77
2023-03-11T20:35:20.604Z,75.33
2023-03-11T20:37:47.122Z,74.91
2023-03-11T20:40:17.172Z,75.19
2023-03-11T20:42:43.753Z,75.64
2023-03-11T20:45:10.388Z,75.89
2023-03-11T20:47:37.680Z,75.51
2023-03-11T20:50:04.339Z,75.71
2023-03-11T20:52:30.923Z,75.61
2023-03-11T20:54:57.521Z,75.32
2023-03-11T20:57:24.122Z,76.06
2023-03-11T20:59:50.605Z,75.75
2023-03-11T21:02:17.245Z,76.18
2023-03-11T21:04:44.053Z,75.88
2023-03-11T21:07:10.602Z,77.06
2023-03-11T21:09:37.560Z,76.54
2023-03-11T21:12:04.405Z,76.71
2023-03-11T21:14:30.862Z,77.09
2023-03-11T21:16:58.792Z,76.34
2023-03-11T21:19:25.440Z,76.52
2023-03-11T21:21:52.234Z,76.46
2023-03-11T21:24:19.224Z,76.29
2023-03-11T21:26:45.763Z,76.72
2023-03-11T21:29:12.434Z,76.57
2023-03-11T21:31:39.062Z,76.70
2023-03-11T21:34:05.576Z,76.43
2023-03-11T21:36:32.195Z,76.14
2023-03-11T21:39:07.871Z,76.38
2023-03-11T21:41:39.075Z,75.91
2023-03-11T21:44:05.518Z,75.55
2023-03-11T21:46:32.095Z,75.80
2023-03-11T21:48:58.761Z,75.83
2023-03-11T21:51:26.084Z,75.60
2023-03-11T21:53:56.195Z,75.42
2023-03-11T21:56:22.836Z,75.78
2023-03-11T21:58:49.332Z,75.56
2023-03-11T22:01:15.959Z,75.81
2023-03-11T22:03:42.609Z,75.38
2023-03-11T22:06:09.282Z,75.63
2023-03-11T22:08:35.854Z,75.36
2023-03-11T22:11:02.383Z,75.55
2023-03-11T22:13:29.033Z,75.70
2023-03-11T22:15:55.501Z,75.98
2023-03-11T22:18:21.960Z,75.36
2023-03-11T22:20:49.608Z,74.85
2023-03-11T22:23:16.042Z,74.62
2023-03-11T22:25:42.413Z,74.81
2023-03-11T22:28:08.995Z,74.69
2023-03-11T22:30:35.413Z,74.71
2023-03-11T22:33:02.296Z,74.36
2023-03-11T22:35:28.697Z,74.49
2023-03-11T22:37:55.104Z,74.87
2023-03-11T22:40:21.538Z,75.04
2023-03-11T22:42:48.044Z,74.83
2023-03-11T22:45:14.429Z,74.84
2023-03-11T22:47:40.845Z,74.96
2023-03-11T22:50:07.242Z,74.66
2023-03-11T22:52:33.633Z,75.04
2023-03-11T22:55:00.336Z,74.61
2023-03-11T22:57:27.154Z,74.51
2023-03-11T22:59:53.602Z,74.32
2023-03-11T23:02:20.043Z,74.86
2023-03-11T23:04:46.493Z,74.52
2023-03-11T23:07:12.890Z,74.91
2023-03-11T23:09:39.269Z,74.97
2023-03-11T23:12:05.646Z,74.90
2023-03-11T23:14:44.144Z,74.66
2023-03-11T23:17:18.457Z,74.92
2023-03-11T23:19:44.791Z,74.88
2023-03-11T23:22:11.185Z,74.61
2023-03-11T23:24:37.568Z,74.77
2023-03-11T23:27:04.007Z,74.94
2023-03-11T23:29:30.450Z,75.02
2023-03-11T23:31:56.894Z,75.21
2023-03-11T23:34:23.295Z,75.56
2023-03-11T23:36:49.758Z,75.71
2023-03-11T23:39:16.113Z,75.79
2023-03-11T23:41:42.465Z,75.60
2023-03-11T23:44:08.882Z,75.62
2023-03-11T23:46:35.341Z,75.38
2023-03-11T23:49:01.704Z,74.79
2023-03-11T23:51:28.197Z,74.86
2023-03-11T23:53:54.544Z,75.37
2023-03-11T23:56:20.973Z,75.27
2023-03-11T23:58:47.348Z,75.23
